Time;durP1;ratioP1;P1;durP2;ratioP2;P2;SDS_P1;SDS_P2;PMS_P1;PMS_P2;Temp;Humidity;BMP_temperature;BMP_pressure;BME280_temperature;BME280_humidity;BME280_pressure;Samples;Min_cycle;Max_cycle;Signal;HPM_P1;HPM_P2
2022/03/11 00:01:52;;;;;;;16.73;9.90;;;5.10;99.90;;;;;;5097573;27;20050;-80
2022/03/11 00:04:19;;;;;;;13.73;9.50;;;5.10;99.90;;;;;;5134900;27;20038;-82
2022/03/11 00:07:03;;;;;;;13.93;9.10;;;5.10;99.90;;;;;;5156086;27;20056;-80
2022/03/11 00:09:29;;;;;;;17.60;8.93;;;5.10;99.90;;;;;;5118259;27;20046;-81
2022/03/11 00:11:55;;;;;;;14.67;9.67;;;5.10;99.90;;;;;;5096867;27;20114;-82
2022/03/11 00:14:21;;;;;;;15.33;8.87;;;5.00;99.90;;;;;;5118369;27;20101;-81
2022/03/11 00:16:47;;;;;;;16.03;9.60;;;5.00;99.90;;;;;;5112267;27;20050;-82
2022/03/11 00:19:12;;;;;;;13.37;9.30;;;5.00;99.90;;;;;;5099148;27;20043;-82
2022/03/11 00:21:38;;;;;;;18.17;9.27;;;4.90;99.90;;;;;;5100618;27;20035;-82
2022/03/11 00:24:04;;;;;;;14.20;8.80;;;4.90;99.90;;;;;;5121600;27;20034;-82
2022/03/11 00:26:32;;;;;;;15.73;9.17;;;4.90;99.90;;;;;;5094875;27;20115;-82
2022/03/11 00:28:58;;;;;;;13.57;8.90;;;4.80;99.90;;;;;;5098969;27;20054;-82
2022/03/11 00:31:25;;;;;;;12.60;8.57;;;4.80;99.90;;;;;;5101034;27;20062;-81
2022/03/11 00:33:50;;;;;;;14.87;9.20;;;4.80;99.90;;;;;;5098009;27;20043;-81
2022/03/11 00:36:16;;;;;;;14.93;9.67;;;4.80;99.90;;;;;;5083983;27;20131;-81
2022/03/11 00:38:42;;;;;;;16.70;9.07;;;4.80;99.90;;;;;;5102094;27;20057;-83
2022/03/11 00:41:08;;;;;;;14.77;8.57;;;4.80;99.90;;;;;;5093324;27;20123;-82
2022/03/11 00:43:34;;;;;;;17.00;9.00;;;4.70;99.90;;;;;;5104052;27;20035;-82
2022/03/11 00:45:59;;;;;;;16.53;9.00;;;4.70;99.90;;;;;;5096568;27;20078;-81
2022/03/11 00:48:25;;;;;;;15.17;9.33;;;4.70;99.90;;;;;;5118835;27;20042;-81
2022/03/11 00:50:51;;;;;;;14.13;9.30;;;4.70;99.90;;;;;;5097723;27;20042;-81
2022/03/11 00:53:17;;;;;;;14.73;8.87;;;4.70;99.90;;;;;;5102869;27;20038;-81
2022/03/11 00:55:43;;;;;;;13.00;9.27;;;4.70;99.90;;;;;;5082664;27;20050;-81
2022/03/11 00:58:09;;;;;;;16.57;9.93;;;4.70;99.90;;;;;;5093796;27;20035;-81
2022/03/11 01:00:34;;;;;;;16.13;9.17;;;4.70;99.90;;;;;;5098060;27;20872;-81
2022/03/11 01:03:00;;;;;;;15.27;9.03;;;4.70;99.90;;;;;;5097308;27;20051;-81
2022/03/11 01:05:26;;;;;;;16.60;9.17;;;4.80;99.90;;;;;;5084785;27;20066;-82
2022/03/11 01:07:53;;;;;;;17.67;9.67;;;4.80;99.90;;;;;;5079335;27;20069;-81
2022/03/11 01:10:19;;;;;;;13.30;8.20;;;4.80;99.90;;;;;;5095178;27;20084;-81
2022/03/11 01:12:45;;;;;;;14.63;8.73;;;4.80;99.90;;;;;;5079279;27;20046;-81
2022/03/11 01:15:11;;;;;;;16.60;8.63;;;4.80;99.90;;;;;;5095891;27;20107;-81
2022/03/11 01:17:38;;;;;;;15.00;8.70;;;4.80;99.90;;;;;;5098865;27;20049;-81
2022/03/11 01:20:05;;;;;;;14.73;8.10;;;4.80;99.90;;;;;;5134399;27;20043;-82
2022/03/11 01:22:32;;;;;;;17.40;9.40;;;4.80;99.90;;;;;;5103473;27;20039;-81
2022/03/11 01:24:58;;;;;;;15.10;8.80;;;4.70;99.90;;;;;;5099338;27;20047;-81
2022/03/11 01:27:23;;;;;;;18.23;9.77;;;4.80;99.90;;;;;;5118694;27;20053;-81
2022/03/11 01:29:49;;;;;;;15.80;8.93;;;4.70;99.90;;;;;;5102367;27;20051;-81
2022/03/11 01:32:15;;;;;;;17.30;9.37;;;4.70;99.90;;;;;;5101175;27;20042;-82
2022/03/11 01:34:41;;;;;;;18.27;9.53;;;4.70;99.90;;;;;;5135503;27;20046;-81
2022/03/11 01:37:07;;;;;;;14.10;10.20;;;4.70;99.90;;;;;;5119416;27;20030;-82
2022/03/11 01:39:33;;;;;;;15.67;9.93;;;4.70;99.90;;;;;;5117996;27;20026;-81
2022/03/11 01:41:59;;;;;;;16.37;9.47;;;4.60;99.90;;;;;;5116719;27;20071;-81
2022/03/11 01:44:25;;;;;;;17.97;10.47;;;4.60;99.90;;;;;;5089076;27;20058;-82
2022/03/11 01:46:52;;;;;;;16.87;10.13;;;4.60;99.90;;;;;;5124690;27;20062;-83
2022/03/11 01:49:18;;;;;;;17.97;10.30;;;4.60;99.90;;;;;;5104494;27;20045;-81
2022/03/11 01:51:44;;;;;;;17.63;10.50;;;4.50;99.90;;;;;;5090800;27;20078;-82
2022/03/11 01:54:10;;;;;;;19.00;10.90;;;4.50;99.90;;;;;;5105095;27;20104;-82
2022/03/11 01:56:37;;;;;;;19.93;11.93;;;4.50;99.90;;;;;;5118594;27;20043;-82
2022/03/11 01:59:04;;;;;;;19.00;11.30;;;4.40;99.90;;;;;;5107782;27;20039;-81
2022/03/11 02:01:30;;;;;;;19.50;10.83;;;4.40;99.90;;;;;;5102424;27;20039;-81
2022/03/11 02:03:59;;;;;;;19.63;11.17;;;4.40;99.90;;;;;;5105217;27;20043;-81
2022/03/11 02:06:29;;;;;;;22.13;11.43;;;4.40;99.90;;;;;;5123449;27;20054;-82
2022/03/11 02:08:55;;;;;;;19.37;12.10;;;4.40;99.90;;;;;;5103546;27;20038;-83
2022/03/11 02:11:21;;;;;;;21.80;12.10;;;4.40;99.90;;;;;;5103664;27;20111;-81
2022/03/11 02:14:00;;;;;;;20.33;11.60;;;4.40;99.90;;;;;;5120445;27;20047;-82
2022/03/11 02:16:31;;;;;;;21.50;12.60;;;4.40;99.90;;;;;;5123849;27;20519;-81
2022/03/11 02:18:58;;;;;;;20.77;12.27;;;4.40;99.90;;;;;;5135525;27;20624;-81
2022/03/11 02:21:28;;;;;;;24.47;12.70;;;4.30;99.90;;;;;;5119965;27;20085;-82
2022/03/11 02:23:57;;;;;;;23.23;13.30;;;4.30;99.90;;;;;;5108025;27;20702;-81
2022/03/11 02:26:24;;;;;;;23.67;12.87;;;4.30;99.90;;;;;;5120699;27;20066;-82
2022/03/11 02:28:52;;;;;;;23.20;12.50;;;4.30;99.90;;;;;;5100071;27;20072;-82
2022/03/11 02:31:19;;;;;;;23.00;13.97;;;4.20;99.90;;;;;;5097853;27;20070;-81
2022/03/11 02:33:45;;;;;;;20.10;12.93;;;4.20;99.90;;;;;;5098978;27;20053;-81
2022/03/11 02:36:11;;;;;;;20.50;12.83;;;4.20;99.90;;;;;;5119359;27;20082;-81
2022/03/11 02:38:37;;;;;;;21.77;13.20;;;4.20;99.90;;;;;;5137984;27;20042;-81
2022/03/11 02:41:04;;;;;;;21.23;12.43;;;4.10;99.90;;;;;;5118860;27;20597;-82
2022/03/11 02:43:30;;;;;;;26.53;14.37;;;4.10;99.90;;;;;;5116710;27;20069;-81
2022/03/11 02:45:55;;;;;;;23.20;13.97;;;4.10;99.90;;;;;;5098517;27;20063;-82
2022/03/11 02:48:21;;;;;;;23.73;14.33;;;4.10;99.90;;;;;;5107547;27;20166;-82
2022/03/11 02:50:47;;;;;;;27.07;14.97;;;4.10;99.90;;;;;;5084712;27;20227;-81
2022/03/11 02:53:13;;;;;;;24.67;13.87;;;4.10;99.90;;;;;;5082544;27;20036;-81
2022/03/11 02:55:39;;;;;;;25.83;15.50;;;4.00;99.90;;;;;;5104285;27;20043;-82
2022/03/11 02:58:06;;;;;;;24.50;15.10;;;4.00;99.90;;;;;;5103851;27;20059;-81
2022/03/11 03:00:32;;;;;;;25.43;15.13;;;4.00;99.90;;;;;;5117721;27;20094;-82
2022/03/11 03:02:57;;;;;;;27.23;16.17;;;4.00;99.90;;;;;;5138997;27;20070;-82
2022/03/11 03:05:23;;;;;;;24.83;15.30;;;3.90;99.90;;;;;;5119910;27;20043;-82
2022/03/11 03:07:49;;;;;;;29.10;15.23;;;3.90;99.90;;;;;;5116754;27;20051;-81
2022/03/11 03:10:15;;;;;;;27.37;15.53;;;3.90;99.90;;;;;;5101122;27;20047;-82
2022/03/11 03:12:41;;;;;;;24.57;15.43;;;3.90;99.90;;;;;;5120807;27;20049;-83
2022/03/11 03:15:08;;;;;;;26.77;16.33;;;3.80;99.90;;;;;;5120210;27;20053;-82
2022/03/11 03:17:35;;;;;;;31.20;15.20;;;3.80;99.90;;;;;;5099287;27;20098;-83
2022/03/11 03:20:02;;;;;;;29.63;16.00;;;3.80;99.90;;;;;;5103520;27;20051;-82
2022/03/11 03:22:27;;;;;;;27.37;15.57;;;3.70;99.90;;;;;;5120368;27;20045;-83
2022/03/11 03:24:53;;;;;;;26.70;16.30;;;3.70;99.90;;;;;;5100717;27;20126;-83
2022/03/11 03:27:19;;;;;;;25.40;16.03;;;3.70;99.90;;;;;;5102662;27;20075;-83
2022/03/11 03:29:45;;;;;;;27.90;16.23;;;3.70;99.90;;;;;;5102048;27;20078;-82
2022/03/11 03:32:11;;;;;;;30.20;15.93;;;3.70;99.90;;;;;;5117400;27;20046;-82
2022/03/11 03:34:37;;;;;;;31.10;16.43;;;3.60;99.90;;;;;;5118225;27;20066;-82
2022/03/11 03:37:08;;;;;;;29.50;16.53;;;3.60;99.90;;;;;;5098850;27;20043;-82
2022/03/11 03:39:39;;;;;;;31.77;17.08;;;3.60;99.90;;;;;;5120897;27;20047;-82
2022/03/11 03:42:05;;;;;;;30.57;15.93;;;3.60;99.90;;;;;;5095733;27;20050;-81
2022/03/11 03:44:32;;;;;;;27.17;16.17;;;3.60;99.90;;;;;;5117120;27;20058;-82
2022/03/11 03:46:58;;;;;;;29.70;17.33;;;3.60;99.90;;;;;;5122158;27;20074;-81
2022/03/11 03:49:25;;;;;;;30.80;17.30;;;3.60;99.90;;;;;;5095749;27;20095;-82
2022/03/11 03:51:51;;;;;;;33.13;16.67;;;3.50;99.90;;;;;;5134073;27;20038;-82
2022/03/11 03:54:18;;;;;;;30.60;17.57;;;3.50;99.90;;;;;;5118353;27;20102;-81
2022/03/11 03:56:45;;;;;;;33.13;18.30;;;3.50;99.90;;;;;;5138173;27;20042;-81
2022/03/11 03:59:12;;;;;;;28.60;16.53;;;3.50;99.90;;;;;;5117276;27;20086;-82
2022/03/11 04:01:41;;;;;;;33.10;17.67;;;3.50;99.90;;;;;;5120766;27;20052;-82
2022/03/11 04:04:08;;;;;;;32.13;19.00;;;3.50;99.90;;;;;;5118808;27;20043;-82
2022/03/11 04:06:35;;;;;;;30.53;16.93;;;3.40;99.90;;;;;;5117565;27;20056;-82
2022/03/11 04:09:03;;;;;;;29.63;17.73;;;3.40;99.90;;;;;;5097387;27;20043;-81
2022/03/11 04:11:29;;;;;;;32.37;18.40;;;3.40;99.90;;;;;;5101644;27;20613;-82
2022/03/11 04:13:56;;;;;;;33.03;18.10;;;3.40;99.90;;;;;;5095755;27;20039;-82
2022/03/11 04:16:22;;;;;;;30.83;18.30;;;3.30;99.90;;;;;;5100238;27;20072;-82
2022/03/11 04:18:48;;;;;;;32.40;18.87;;;3.30;99.90;;;;;;5118815;27;20492;-82
2022/03/11 04:21:15;;;;;;;33.10;18.67;;;3.30;99.90;;;;;;5119839;27;20177;-81
2022/03/11 04:23:41;;;;;;;32.40;18.20;;;3.30;99.90;;;;;;5103628;27;20512;-82
2022/03/11 04:26:07;;;;;;;31.27;17.53;;;3.30;99.90;;;;;;5120534;27;20121;-82
2022/03/11 04:28:34;;;;;;;36.03;18.90;;;3.20;99.90;;;;;;5080888;27;20078;-81
2022/03/11 04:31:00;;;;;;;29.83;17.73;;;3.20;99.90;;;;;;5135712;27;20050;-82
2022/03/11 04:33:26;;;;;;;33.83;18.10;;;3.20;99.90;;;;;;5115791;27;20179;-82
2022/03/11 04:35:52;;;;;;;29.30;18.20;;;3.10;99.90;;;;;;5118305;27;20098;-82
2022/03/11 04:38:18;;;;;;;32.77;18.00;;;3.10;99.90;;;;;;5117743;27;20577;-82
2022/03/11 04:40:44;;;;;;;31.97;18.20;;;3.10;99.90;;;;;;5100578;27;20570;-82
2022/03/11 04:43:10;;;;;;;33.97;18.90;;;3.10;99.90;;;;;;5096344;27;20050;-81
2022/03/11 04:45:35;;;;;;;32.60;17.47;;;3.10;99.90;;;;;;5132641;27;20051;-82
2022/03/11 04:48:01;;;;;;;30.63;17.60;;;3.00;99.90;;;;;;5080405;28;20050;-82
2022/03/11 04:50:27;;;;;;;33.90;18.77;;;3.00;99.90;;;;;;5100425;27;20129;-82
2022/03/11 04:52:53;;;;;;;35.97;18.40;;;3.00;99.90;;;;;;5098656;27;20035;-81
2022/03/11 04:55:19;;;;;;;29.07;18.00;;;3.00;99.90;;;;;;5116508;27;20099;-82
2022/03/11 04:57:45;;;;;;;31.83;18.60;;;3.00;99.90;;;;;;5102536;27;20106;-82
2022/03/11 05:00:12;;;;;;;32.60;18.63;;;3.00;99.90;;;;;;5118012;27;20047;-82
2022/03/11 05:02:40;;;;;;;34.87;20.27;;;3.00;99.90;;;;;;5116407;27;20070;-82
2022/03/11 05:05:07;;;;;;;31.37;17.87;;;2.90;99.90;;;;;;5104355;27;20043;-81
2022/03/11 05:07:36;;;;;;;31.33;18.43;;;2.90;99.90;;;;;;5118830;27;20351;-81
2022/03/11 05:10:02;;;;;;;32.23;18.40;;;2.90;99.90;;;;;;5121965;27;20288;-82
2022/03/11 05:12:28;;;;;;;34.60;18.50;;;2.90;99.90;;;;;;5097781;27;20315;-83
2022/03/11 05:14:53;;;;;;;34.17;18.67;;;2.90;99.90;;;;;;5136184;27;21679;-81
2022/03/11 05:17:19;;;;;;;31.63;18.73;;;2.90;99.90;;;;;;5101619;27;20057;-81
2022/03/11 05:19:45;;;;;;;33.90;18.83;;;2.80;99.90;;;;;;5098580;27;20046;-81
2022/03/11 05:22:11;;;;;;;29.50;17.47;;;2.80;99.90;;;;;;5120489;27;20425;-82
2022/03/11 05:24:38;;;;;;;30.37;17.03;;;2.70;99.90;;;;;;5119007;27;20693;-81
2022/03/11 05:27:05;;;;;;;32.40;18.90;;;2.70;99.90;;;;;;5099958;27;20053;-81
2022/03/11 05:29:32;;;;;;;33.20;18.23;;;2.70;99.90;;;;;;5122226;27;20288;-81
2022/03/11 05:31:59;;;;;;;34.07;18.60;;;2.70;99.90;;;;;;5117543;27;20054;-81
2022/03/11 05:34:25;;;;;;;33.10;18.33;;;2.70;99.90;;;;;;5121084;27;20049;-81
2022/03/11 05:36:51;;;;;;;30.73;17.90;;;2.70;99.90;;;;;;5121918;27;20046;-82
2022/03/11 05:39:17;;;;;;;32.33;18.33;;;2.60;99.90;;;;;;5101084;27;20293;-81
2022/03/11 05:41:43;;;;;;;28.03;15.80;;;2.60;99.90;;;;;;5103629;27;20035;-82
2022/03/11 05:44:09;;;;;;;31.53;18.00;;;2.60;99.90;;;;;;5120396;27;20301;-82
2022/03/11 05:46:35;;;;;;;33.30;18.90;;;2.60;99.90;;;;;;5114297;27;20871;-79
2022/03/11 05:49:00;;;;;;;32.83;18.63;;;2.60;99.90;;;;;;5104927;27;20099;-81
2022/03/11 05:51:26;;;;;;;30.53;18.10;;;2.60;99.90;;;;;;5136343;27;20289;-81
2022/03/11 05:53:52;;;;;;;34.20;17.83;;;2.60;99.90;;;;;;5079381;27;20047;-82
2022/03/11 05:56:18;;;;;;;29.63;17.10;;;2.60;99.90;;;;;;5105468;27;20051;-81
2022/03/11 05:58:43;;;;;;;32.77;17.57;;;2.60;99.90;;;;;;5090738;27;20034;-81
2022/03/11 06:01:10;;;;;;;34.93;18.20;;;2.50;99.90;;;;;;5088801;27;20043;-81
2022/03/11 06:03:35;;;;;;;32.93;18.70;;;2.60;99.90;;;;;;5098609;27;20047;-82
2022/03/11 06:06:01;;;;;;;32.00;17.97;;;2.50;99.90;;;;;;5082477;27;20368;-83
2022/03/11 06:08:27;;;;;;;32.23;18.13;;;2.50;99.90;;;;;;5108096;27;20452;-81
2022/03/11 06:10:52;;;;;;;31.70;18.07;;;2.50;99.90;;;;;;5104881;27;20034;-82
2022/03/11 06:13:18;;;;;;;30.33;17.70;;;2.50;99.90;;;;;;5136614;27;20073;-81
2022/03/11 06:15:45;;;;;;;35.13;17.60;;;2.50;99.90;;;;;;5121802;27;20049;-82
2022/03/11 06:18:15;;;;;;;33.60;18.00;;;2.50;99.90;;;;;;5099592;27;20042;-82
2022/03/11 06:20:41;;;;;;;34.47;18.30;;;2.50;99.90;;;;;;5106581;27;20300;-83
2022/03/11 06:23:07;;;;;;;33.10;18.40;;;2.50;99.90;;;;;;5121667;27;20288;-82
2022/03/11 06:25:33;;;;;;;31.60;17.90;;;2.60;99.90;;;;;;5096844;27;20329;-82
2022/03/11 06:27:59;;;;;;;30.00;17.47;;;2.60;99.90;;;;;;5135159;27;20098;-82
2022/03/11 06:30:24;;;;;;;34.83;17.87;;;2.50;99.90;;;;;;5088119;27;20074;-82
2022/03/11 06:32:51;;;;;;;31.07;16.63;;;2.60;99.90;;;;;;5120024;27;21001;-83
2022/03/11 06:35:18;;;;;;;34.83;18.00;;;2.60;99.90;;;;;;5105217;27;20050;-82
2022/03/11 06:37:45;;;;;;;31.67;17.87;;;2.60;99.90;;;;;;5101350;27;20304;-82
2022/03/11 06:40:12;;;;;;;36.07;18.87;;;2.60;99.90;;;;;;5101790;27;20310;-82
2022/03/11 06:42:39;;;;;;;34.50;18.27;;;2.70;99.90;;;;;;5102654;27;20762;-82
2022/03/11 06:45:06;;;;;;;30.87;17.97;;;2.70;99.90;;;;;;5102448;27;20324;-81
2022/03/11 06:47:33;;;;;;;28.97;16.27;;;2.70;99.90;;;;;;5136974;27;20288;-81
2022/03/11 06:49:58;;;;;;;35.27;18.63;;;2.80;99.90;;;;;;5118509;27;20677;-81
2022/03/11 06:52:24;;;;;;;33.00;17.83;;;2.80;99.90;;;;;;5124110;27;20288;-81
2022/03/11 06:54:51;;;;;;;28.73;17.33;;;2.90;99.90;;;;;;5118976;27;20049;-82
2022/03/11 06:57:17;;;;;;;35.10;18.60;;;2.90;99.90;;;;;;5105087;27;20656;-85
2022/03/11 06:59:47;;;;;;;34.37;17.80;;;2.90;99.90;;;;;;5139310;27;20304;-82
2022/03/11 07:02:14;;;;;;;32.17;17.50;;;3.00;99.90;;;;;;5122359;27;20299;-80
2022/03/11 07:04:40;;;;;;;30.07;17.73;;;3.00;99.90;;;;;;5118346;27;20344;-83
2022/03/11 07:07:06;;;;;;;32.37;17.03;;;3.00;99.90;;;;;;5120528;27;20360;-80
2022/03/11 07:09:33;;;;;;;30.50;17.17;;;3.10;99.90;;;;;;5120166;27;20294;-78
2022/03/11 07:12:01;;;;;;;30.40;16.47;;;3.10;99.90;;;;;;5104021;27;20281;-78
2022/03/11 07:14:35;;;;;;;32.73;18.10;;;3.20;99.90;;;;;;5119813;27;20313;-78
2022/03/11 07:17:07;;;;;;;29.30;16.40;;;3.20;99.90;;;;;;5121171;27;20336;-79
2022/03/11 07:19:34;;;;;;;29.88;17.17;;;3.30;99.90;;;;;;5102233;27;20296;-81
2022/03/11 07:22:03;;;;;;;33.13;18.40;;;3.30;99.90;;;;;;5102370;27;20592;-80
2022/03/11 07:24:28;;;;;;;31.43;17.07;;;3.30;99.90;;;;;;5115711;27;20303;-80
2022/03/11 07:26:55;;;;;;;29.33;17.60;;;3.40;99.90;;;;;;5083400;27;20057;-80
2022/03/11 07:29:21;;;;;;;30.77;17.03;;;3.40;99.90;;;;;;5103922;27;20047;-80
2022/03/11 07:31:47;;;;;;;31.87;17.33;;;3.50;99.90;;;;;;5113337;27;20950;-79
2022/03/11 07:34:12;;;;;;;30.20;16.90;;;3.50;99.90;;;;;;5107755;27;20093;-79
2022/03/11 07:36:38;;;;;;;32.50;18.10;;;3.60;99.90;;;;;;5098185;27;20277;-80
2022/03/11 07:39:06;;;;;;;28.60;16.07;;;3.60;99.90;;;;;;5119380;27;20509;-79
2022/03/11 07:41:33;;;;;;;31.57;17.17;;;3.70;99.90;;;;;;5116071;27;20038;-78
2022/03/11 07:43:59;;;;;;;30.93;16.37;;;3.80;99.90;;;;;;5088252;27;20047;-78
2022/03/11 07:46:27;;;;;;;32.20;16.83;;;3.80;99.90;;;;;;5106806;27;20050;-78
2022/03/11 07:48:54;;;;;;;30.73;16.83;;;3.90;99.90;;;;;;5091445;27;20473;-78
2022/03/11 07:51:20;;;;;;;30.97;16.43;;;3.90;99.90;;;;;;5105408;27;20354;-76
2022/03/11 07:53:46;;;;;;;28.30;16.67;;;4.00;99.90;;;;;;5092174;27;20405;-78
2022/03/11 07:56:14;;;;;;;31.83;16.87;;;4.10;99.90;;;;;;5114866;27;20043;-78
2022/03/11 07:58:41;;;;;;;31.67;17.23;;;4.10;99.90;;;;;;5091644;27;20055;-78
2022/03/11 08:01:11;;;;;;;27.90;15.90;;;4.20;99.90;;;;;;5111665;27;20043;-78
2022/03/11 08:03:38;;;;;;;31.07;16.63;;;4.20;99.90;;;;;;5133298;27;20034;-78
2022/03/11 08:06:05;;;;;;;32.00;17.63;;;4.30;99.90;;;;;;5133296;27;20054;-78
2022/03/11 08:08:31;;;;;;;33.17;17.10;;;4.40;99.90;;;;;;5102261;27;20043;-79
2022/03/11 08:10:57;;;;;;;30.27;17.77;;;4.50;99.90;;;;;;5091463;27;20088;-78
2022/03/11 08:13:23;;;;;;;31.63;16.50;;;4.50;99.90;;;;;;5095467;27;20050;-79
2022/03/11 08:15:49;;;;;;;31.13;16.93;;;4.60;99.90;;;;;;5116625;27;20125;-79
2022/03/11 08:18:15;;;;;;;33.20;17.77;;;4.70;99.90;;;;;;5115833;27;20046;-77
2022/03/11 08:20:41;;;;;;;31.27;18.50;;;4.80;99.90;;;;;;5092490;27;20043;-76
2022/03/11 08:23:08;;;;;;;30.37;16.33;;;4.90;99.90;;;;;;5110230;27;20046;-76
2022/03/11 08:25:36;;;;;;;30.83;16.90;;;5.00;99.90;;;;;;5113273;27;20126;-77
2022/03/11 08:28:04;;;;;;;31.10;17.60;;;5.10;99.90;;;;;;5131373;27;20042;-77
2022/03/11 08:30:31;;;;;;;28.57;16.13;;;5.20;99.90;;;;;;5084697;27;20072;-77
2022/03/11 08:32:57;;;;;;;29.43;16.90;;;5.30;99.90;;;;;;5114364;27;20102;-76
2022/03/11 08:35:24;;;;;;;27.73;16.17;;;5.40;99.90;;;;;;5112259;27;20051;-76
2022/03/11 08:37:51;;;;;;;36.00;17.37;;;5.40;99.90;;;;;;5113496;27;20043;-77
2022/03/11 08:40:22;;;;;;;29.00;17.30;;;5.50;99.90;;;;;;5113026;27;20031;-77
2022/03/11 08:42:48;;;;;;;31.00;17.23;;;5.60;99.90;;;;;;5132326;27;20055;-76
2022/03/11 08:45:14;;;;;;;30.37;16.83;;;5.60;99.90;;;;;;5080450;27;20588;-77
2022/03/11 08:47:40;;;;;;;33.50;16.97;;;5.70;99.90;;;;;;5097495;27;20046;-76
2022/03/11 08:50:06;;;;;;;31.70;17.50;;;5.80;99.90;;;;;;5080807;27;20050;-76
2022/03/11 08:52:32;;;;;;;28.33;16.03;;;5.80;99.90;;;;;;5114376;27;20035;-77
2022/03/11 08:54:58;;;;;;;30.47;17.33;;;5.90;99.90;;;;;;5132201;27;20034;-76
2022/03/11 08:57:24;;;;;;;27.97;15.10;;;5.90;99.90;;;;;;5151183;27;21063;-76
2022/03/11 08:59:50;;;;;;;30.83;17.63;;;6.00;99.90;;;;;;5081811;27;20812;-77
2022/03/11 09:02:17;;;;;;;29.17;16.60;;;6.10;99.90;;;;;;5097979;27;20138;-76
2022/03/11 09:04:42;;;;;;;29.00;16.33;;;6.10;99.90;;;;;;5132524;27;20045;-75
2022/03/11 09:07:09;;;;;;;28.77;16.47;;;6.20;99.90;;;;;;5133197;27;20035;-76
2022/03/11 09:09:36;;;;;;;31.77;17.03;;;6.30;99.90;;;;;;5100394;27;20045;-75
2022/03/11 09:12:03;;;;;;;31.83;16.50;;;6.30;99.90;;;;;;5098221;27;20088;-75
2022/03/11 09:14:30;;;;;;;30.73;16.67;;;6.50;99.90;;;;;;5117159;27;20081;-75
2022/03/11 09:16:57;;;;;;;27.33;15.90;;;6.50;99.90;;;;;;5112750;27;20057;-81
2022/03/11 09:19:22;;;;;;;31.17;17.53;;;6.60;99.90;;;;;;5098567;27;20047;-74
2022/03/11 09:21:48;;;;;;;27.80;16.27;;;6.60;99.90;;;;;;5121724;27;20042;-78
2022/03/11 09:24:14;;;;;;;28.47;16.20;;;6.60;99.90;;;;;;5106815;27;20043;-78
2022/03/11 09:26:40;;;;;;;28.73;16.53;;;6.60;99.90;;;;;;5104229;27;22157;-76
2022/03/11 09:29:06;;;;;;;27.90;16.20;;;6.80;99.90;;;;;;5099113;27;20103;-79
2022/03/11 09:31:34;;;;;;;30.73;17.33;;;6.80;99.90;;;;;;5085320;28;20028;-81
2022/03/11 09:34:00;;;;;;;34.57;16.47;;;6.90;99.60;;;;;;5118255;27;20647;-77
2022/03/11 09:36:26;;;;;;;27.50;16.63;;;7.00;98.60;;;;;;5099492;27;20056;-79
2022/03/11 09:38:52;;;;;;;31.00;17.07;;;6.90;98.20;;;;;;5111875;28;20043;-79
2022/03/11 09:41:20;;;;;;;31.50;16.93;;;7.10;97.60;;;;;;5079045;27;20078;-80
2022/03/11 09:43:46;;;;;;;27.93;16.50;;;7.10;95.70;;;;;;5119695;27;20050;-79
2022/03/11 09:46:14;;;;;;;29.03;15.97;;;7.30;96.20;;;;;;5118787;27;20050;-79
2022/03/11 09:48:43;;;;;;;26.67;16.53;;;7.40;95.30;;;;;;5113477;28;20080;-78
2022/03/11 09:51:12;;;;;;;30.37;16.70;;;7.50;94.00;;;;;;5112355;27;20039;-86
2022/03/11 09:53:38;;;;;;;31.83;17.40;;;7.70;94.60;;;;;;5108490;27;20066;-82
2022/03/11 09:56:04;;;;;;;29.63;17.03;;;7.80;93.70;;;;;;5092125;27;20038;-81
2022/03/11 09:58:30;;;;;;;29.37;16.73;;;7.90;91.90;;;;;;5091975;27;20039;-81
2022/03/11 10:00:56;;;;;;;30.97;16.00;;;8.00;91.80;;;;;;5118607;27;20099;-79
2022/03/11 10:03:22;;;;;;;29.50;17.70;;;8.10;91.50;;;;;;5078653;27;20042;-79
2022/03/11 10:05:55;;;;;;;30.47;16.43;;;8.20;88.80;;;;;;5084009;27;20043;-80
2022/03/11 10:08:34;;;;;;;28.90;16.47;;;8.30;89.60;;;;;;5094763;27;20043;-78
2022/03/11 10:11:16;;;;;;;28.30;17.00;;;8.40;83.80;;;;;;5113797;27;20106;-78
2022/03/11 10:13:41;;;;;;;;;;;8.60;81.20;;;;;;5116627;27;20035;-78
2022/03/11 10:16:18;;;;;;;25.43;14.77;;;8.70;76.20;;;;;;5124353;27;19925;-78
2022/03/11 10:19:13;;;;;;;25.73;16.23;;;8.80;81.60;;;;;;5116532;27;20035;-76
2022/03/11 10:21:51;;;;;;;28.33;14.87;;;9.00;79.00;;;;;;5122031;27;20043;-76
2022/03/11 10:24:21;;;;;;;31.00;16.00;;;9.00;82.10;;;;;;5120428;27;20049;-77
2022/03/11 10:26:49;;;;;;;27.57;15.90;;;9.10;76.00;;;;;;5121619;27;20050;-77
2022/03/11 10:29:22;;;;;;;26.83;15.73;;;9.10;76.90;;;;;;5117785;27;20046;-77
2022/03/11 10:31:51;;;;;;;24.20;15.87;;;9.10;77.00;;;;;;5124024;27;20090;-77
2022/03/11 10:34:25;;;;;;;28.43;15.87;;;9.20;77.10;;;;;;5112405;27;20046;-77
2022/03/11 10:37:07;;;;;;;27.80;16.07;;;9.20;72.60;;;;;;5121786;27;20051;-77
2022/03/11 10:39:41;;;;;;;29.48;15.32;;;9.20;74.30;;;;;;5123719;27;20118;-77
2022/03/11 10:42:15;;;;;;;28.77;15.93;;;9.30;73.70;;;;;;5135211;27;20047;-78
2022/03/11 10:45:06;;;;;;;30.40;17.33;;;9.40;73.00;;;;;;5134864;27;20058;-78
2022/03/11 10:47:37;;;;;;;28.53;15.63;;;9.40;71.60;;;;;;5116137;27;20054;-77
2022/03/11 10:50:15;;;;;;;28.37;16.07;;;9.40;72.70;;;;;;5135735;27;20993;-76
2022/03/11 10:52:47;;;;;;;25.03;15.23;;;9.50;72.50;;;;;;5152202;27;20300;-76
2022/03/11 10:55:17;;;;;;;26.58;16.58;;;9.60;70.50;;;;;;5121418;27;20677;-76
2022/03/11 10:57:43;;;;;;;26.40;16.10;;;9.60;69.30;;;;;;5125983;27;20047;-77
2022/03/11 11:00:40;;;;;;;24.50;15.67;;;9.60;71.90;;;;;;5113840;27;20076;-77
2022/03/11 11:03:08;;;;;;;27.17;15.63;;;9.60;68.80;;;;;;5089121;27;20098;-76
2022/03/11 11:05:36;;;;;;;26.87;15.13;;;9.70;71.00;;;;;;5121259;27;20053;-76
2022/03/11 11:08:04;;;;;;;26.90;15.53;;;9.80;70.60;;;;;;5133832;27;20039;-77
2022/03/11 11:10:33;;;;;;;26.00;15.20;;;9.90;69.80;;;;;;5120664;27;20583;-78
2022/03/11 11:12:59;;;;;;;26.87;15.53;;;9.90;68.70;;;;;;5140197;27;20894;-78
2022/03/11 11:15:25;;;;;;;24.90;15.37;;;10.00;68.50;;;;;;5095270;27;20034;-78
2022/03/11 11:17:52;;;;;;;25.77;15.40;;;10.10;69.60;;;;;;5121372;27;20049;-78
2022/03/11 11:20:24;;;;;;;28.27;15.60;;;10.10;68.20;;;;;;5136697;27;20058;-77
2022/03/11 11:22:52;;;;;;;27.93;15.90;;;10.10;66.70;;;;;;5140102;27;20050;-78
2022/03/11 11:25:22;;;;;;;25.37;16.43;;;10.10;66.60;;;;;;5108140;27;20133;-76
2022/03/11 11:27:51;;;;;;;25.53;15.70;;;10.10;65.50;;;;;;5111909;27;20043;-77
2022/03/11 11:30:23;;;;;;;26.37;15.23;;;10.20;66.30;;;;;;5129944;27;20466;-77
2022/03/11 11:32:52;;;;;;;25.33;14.82;;;10.20;65.30;;;;;;5112615;27;20187;-77
2022/03/11 11:35:28;;;;;;;26.30;15.07;;;10.20;65.20;;;;;;5117344;27;20035;-77
2022/03/11 11:37:57;;;;;;;23.50;14.77;;;10.40;65.20;;;;;;5122474;27;20119;-78
2022/03/11 11:40:35;;;;;;;24.60;14.83;;;10.40;64.60;;;;;;5116958;27;20072;-78
2022/03/11 11:43:13;;;;;;;23.13;14.50;;;10.50;65.20;;;;;;5115554;27;20058;-79
2022/03/11 11:46:02;;;;;;;24.43;15.00;;;10.60;62.30;;;;;;5118892;27;20077;-78
2022/03/11 11:48:45;;;;;;;22.53;14.17;;;10.60;62.20;;;;;;5111462;27;20162;-79
2022/03/11 11:51:14;;;;;;;24.70;14.13;;;10.70;62.70;;;;;;5110212;27;20042;-78
2022/03/11 11:53:57;;;;;;;25.37;14.70;;;10.70;63.30;;;;;;5106609;27;20509;-78
2022/03/11 11:56:30;;;;;;;22.83;13.87;;;10.80;63.00;;;;;;5117710;27;20031;-78
2022/03/11 11:59:19;;;;;;;25.93;14.30;;;10.90;62.20;;;;;;5122612;27;20092;-78
2022/03/11 12:01:46;;;;;;;25.07;14.70;;;11.00;59.80;;;;;;5138005;27;20045;-78
2022/03/11 12:04:28;;;;;;;21.47;14.33;;;11.10;61.70;;;;;;5107115;27;20054;-78
2022/03/11 12:07:09;;;;;;;21.58;14.48;;;11.20;61.70;;;;;;5120208;27;20498;-79
2022/03/11 12:09:41;;;;;;;22.80;13.63;;;11.30;59.40;;;;;;5116058;27;20043;-79
2022/03/11 12:12:08;;;;;;;24.03;13.53;;;11.30;60.80;;;;;;5113704;27;20043;-78
2022/03/11 12:15:05;;;;;;;22.97;13.37;;;11.50;61.10;;;;;;5111864;27;20045;-78
2022/03/11 12:17:51;;;;;;;22.33;14.50;;;11.60;59.50;;;;;;5108465;27;20076;-78
2022/03/11 12:20:31;;;;;;;24.17;14.20;;;11.60;57.60;;;;;;5104942;27;20054;-78
2022/03/11 12:23:06;;;;;;;21.73;14.73;;;11.50;58.20;;;;;;5120456;27;20053;-79
2022/03/11 12:25:41;;;;;;;32.73;14.53;;;11.60;59.80;;;;;;5132717;27;20043;-78
2022/03/11 12:28:11;;;;;;;21.60;14.13;;;11.60;59.00;;;;;;5089849;27;20046;-78
2022/03/11 12:31:04;;;;;;;18.40;13.30;;;11.70;59.60;;;;;;5127316;27;20039;-78
2022/03/11 12:33:38;;;;;;;21.30;13.53;;;11.80;56.60;;;;;;5129980;27;20124;-78
2022/03/11 12:36:15;;;;;;;22.07;14.63;;;11.80;57.10;;;;;;5135331;27;20046;-78
2022/03/11 12:38:42;;;;;;;21.63;13.20;;;11.80;57.70;;;;;;5116035;27;20071;-78
2022/03/11 12:41:10;;;;;;;20.03;13.13;;;11.90;57.80;;;;;;5094434;27;20050;-79
2022/03/11 12:43:37;;;;;;;21.67;14.17;;;12.00;57.80;;;;;;5117032;27;20042;-78